createdAt,value
2019-01-03T15:02:15.181Z,-0.31
2019-01-03T15:04:49.334Z,-0.36
2019-01-03T15:07:22.926Z,-0.44
2019-01-03T15:09:56.277Z,-0.55
2019-01-03T15:12:30.224Z,-0.50
2019-01-03T15:15:04.217Z,-0.50
2019-01-03T15:17:37.874Z,-0.52
2019-01-03T15:20:13.756Z,-0.57
2019-01-03T15:22:47.975Z,-0.67
2019-01-03T15:25:22.086Z,-0.73
2019-01-03T15:27:55.494Z,-0.75
2019-01-03T15:30:29.075Z,-0.82
2019-01-03T15:33:03.063Z,-0.90
2019-01-03T15:35:36.923Z,-1.02
2019-01-03T15:38:10.485Z,-1.11
2019-01-03T15:40:44.156Z,-1.17
2019-01-03T15:43:17.683Z,-1.22
2019-01-03T15:45:51.574Z,-1.20
2019-01-03T15:48:26.777Z,-1.24
2019-01-03T15:51:00.444Z,-1.25
2019-01-03T15:53:35.256Z,-1.28
2019-01-03T15:56:09.236Z,-1.35
2019-01-03T15:58:43.133Z,-1.40
2019-01-03T16:01:19.287Z,-1.45
2019-01-03T16:03:52.934Z,-1.50
2019-01-03T16:06:27.084Z,-1.54
2019-01-03T16:09:00.575Z,-1.54
2019-01-03T16:11:36.404Z,-1.59
2019-01-03T16:14:10.084Z,-1.65
2019-01-03T16:16:43.627Z,-1.67
2019-01-03T16:19:17.747Z,-1.73
2019-01-03T16:21:51.708Z,-1.76
2019-01-03T16:24:25.843Z,-1.76
2019-01-03T16:26:59.937Z,-1.77
2019-01-03T16:29:34.474Z,-1.81
2019-01-03T16:32:08.804Z,-1.72
2019-01-03T16:34:43.102Z,-1.60
2019-01-03T16:37:17.474Z,-1.52
2019-01-03T16:39:52.106Z,-1.43
2019-01-03T16:42:45.467Z,-1.34
2019-01-03T16:45:19.497Z,-1.29
2019-01-03T16:47:54.026Z,-1.35
2019-01-03T16:50:28.278Z,-1.40
2019-01-03T16:53:03.729Z,-1.43
2019-01-03T16:55:37.886Z,-1.48
2019-01-03T16:59:39.806Z,-1.52
2019-01-03T17:02:13.947Z,-1.57
2019-01-03T17:04:48.066Z,-1.56
2019-01-03T17:07:23.526Z,-1.45
2019-01-03T17:09:58.037Z,-1.38
2019-01-03T17:12:32.090Z,-1.35
2019-01-03T17:15:06.653Z,-1.42
2019-01-03T17:17:40.747Z,-1.49
2019-01-03T17:20:15.336Z,-1.48
2019-01-03T17:22:49.686Z,-1.49
2019-01-03T17:25:23.853Z,-1.51
2019-01-03T17:27:58.039Z,-1.53
2019-01-03T17:30:32.409Z,-1.54
2019-01-03T17:33:06.545Z,-1.57
2019-01-03T17:35:42.115Z,-1.61
2019-01-03T17:38:19.430Z,-1.54
2019-01-03T17:40:55.906Z,-1.45
2019-01-03T17:43:30.337Z,-1.43
2019-01-03T17:46:04.705Z,-1.49
2019-01-03T17:48:40.383Z,-1.55
2019-01-03T17:51:15.035Z,-1.60
2019-01-03T17:53:49.126Z,-1.63
2019-01-03T17:56:23.297Z,-1.64
2019-01-03T17:58:57.497Z,-1.64
2019-01-03T18:01:31.875Z,-1.64
2019-01-03T18:04:06.515Z,-1.69
2019-01-03T18:06:41.197Z,-1.70
2019-01-03T18:09:15.293Z,-1.75
2019-01-03T18:11:52.357Z,-1.79
2019-01-03T18:14:26.677Z,-1.84
2019-01-03T18:17:01.077Z,-1.89
2019-01-03T18:19:35.417Z,-1.88
2019-01-03T18:22:09.935Z,-1.87
2019-01-03T18:24:45.116Z,-1.87
2019-01-03T18:27:19.644Z,-1.90
2019-01-03T18:29:53.742Z,-1.91
2019-01-03T18:32:28.403Z,-1.83
2019-01-03T18:35:02.868Z,-1.77
2019-01-03T18:37:36.965Z,-1.73
2019-01-03T18:40:15.407Z,-1.77
2019-01-03T18:42:50.598Z,-1.80
2019-01-03T18:45:28.050Z,-1.86
2019-01-03T18:48:02.417Z,-1.93
2019-01-03T18:50:39.463Z,-1.97
2019-01-03T18:53:18.957Z,-2.01
2019-01-03T18:55:53.345Z,-1.94
2019-01-03T18:58:27.582Z,-1.81
2019-01-03T19:01:09.276Z,-1.79
2019-01-03T19:03:44.885Z,-1.78
2019-01-03T19:06:19.423Z,-1.76
2019-01-03T19:08:53.993Z,-1.73
2019-01-03T19:11:28.343Z,-1.71
2019-01-03T19:14:02.633Z,-1.73
2019-01-03T19:16:37.255Z,-1.80
2019-01-03T19:19:11.836Z,-1.87
2019-01-03T19:21:46.582Z,-1.94
2019-01-03T19:24:23.558Z,-1.99
2019-01-03T19:26:57.728Z,-2.04
2019-01-03T19:29:32.522Z,-2.10
2019-01-03T19:32:06.980Z,-2.16
2019-01-03T19:34:42.075Z,-2.24
2019-01-03T19:37:16.456Z,-2.26
2019-01-03T19:39:50.814Z,-2.27
2019-01-03T19:42:24.992Z,-2.31
2019-01-03T19:44:59.425Z,-2.34
2019-01-03T19:47:33.898Z,-2.38
2019-01-03T19:50:09.981Z,-2.40
2019-01-03T19:52:44.613Z,-2.42
2019-01-03T19:55:19.482Z,-2.37
2019-01-03T19:57:53.977Z,-2.33
2019-01-03T20:00:28.362Z,-2.29
2019-01-03T20:03:02.912Z,-2.30
2019-01-03T20:05:38.064Z,-2.27
2019-01-03T20:08:12.583Z,-2.23
2019-01-03T20:10:47.072Z,-2.19
2019-01-03T20:13:21.538Z,-2.16
2019-01-03T20:16:00.144Z,-2.17
2019-01-03T20:18:34.716Z,-2.18
2019-01-03T20:21:09.298Z,-2.18
2019-01-03T20:23:46.487Z,-2.14
2019-01-03T20:26:21.412Z,-2.09
2019-01-03T20:28:55.791Z,-2.05
2019-01-03T20:31:30.263Z,-2.01
2019-01-03T20:34:04.706Z,-2.02
2019-01-03T20:36:40.273Z,-2.01
2019-01-03T20:39:14.685Z,-2.01
2019-01-03T20:41:49.015Z,-2.01
2019-01-03T20:44:23.826Z,-2.05
2019-01-03T20:46:58.505Z,-2.08
2019-01-03T20:49:32.603Z,-2.11
2019-01-03T20:52:07.017Z,-2.08
2019-01-03T20:54:41.161Z,-2.08
2019-01-03T20:57:15.842Z,-2.03
2019-01-03T20:59:50.312Z,-1.95
2019-01-03T21:02:24.823Z,-1.92
2019-01-03T21:04:59.304Z,-1.88
2019-01-03T21:07:35.885Z,-1.85
2019-01-03T21:10:12.404Z,-1.88
2019-01-03T21:12:46.945Z,-1.95
2019-01-03T21:15:22.364Z,-2.07
2019-01-03T21:18:00.442Z,-2.14
2019-01-03T21:20:35.812Z,-2.19
2019-01-03T21:23:10.350Z,-2.22
2019-01-03T21:25:47.057Z,-2.22
2019-01-03T21:28:21.352Z,-2.23
2019-01-03T21:30:55.753Z,-2.20
2019-01-03T21:33:30.425Z,-2.14
2019-01-03T21:36:04.967Z,-2.06
2019-01-03T21:38:40.465Z,-2.03
2019-01-03T21:41:15.257Z,-2.07
2019-01-03T21:43:49.625Z,-2.12
2019-01-03T21:46:24.082Z,-2.13
2019-01-03T21:48:58.262Z,-2.13
2019-01-03T21:51:32.703Z,-2.04
2019-01-03T21:54:06.962Z,-1.94
2019-01-03T21:56:41.182Z,-1.84
2019-01-03T21:59:16.040Z,-1.77
2019-01-03T22:01:50.425Z,-1.70
2019-01-03T22:04:24.735Z,-1.66
2019-01-03T22:06:58.813Z,-1.59
2019-01-03T22:09:34.225Z,-1.54
2019-01-03T22:12:08.295Z,-1.48
2019-01-03T22:14:42.513Z,-1.44
2019-01-03T22:17:16.786Z,-1.41
2019-01-03T22:19:51.498Z,-1.42
2019-01-03T22:22:25.695Z,-1.38
2019-01-03T22:24:59.552Z,-1.38
2019-01-03T22:27:33.722Z,-1.36
2019-01-03T22:30:12.075Z,-1.39
2019-01-03T22:32:46.639Z,-1.33
2019-01-03T22:35:20.443Z,-1.32
2019-01-03T22:37:54.191Z,-1.34
2019-01-03T22:40:27.887Z,-1.29
2019-01-03T22:43:01.907Z,-1.30
2019-01-03T22:45:35.724Z,-1.27
2019-01-03T22:48:09.091Z,-1.26
2019-01-03T22:50:43.273Z,-1.24
2019-01-03T22:53:17.919Z,-1.21
2019-01-03T22:55:51.207Z,-1.23
2019-01-03T22:58:24.775Z,-1.19
2019-01-03T23:00:59.818Z,-1.19
2019-01-03T23:03:33.227Z,-1.20
2019-01-03T23:06:06.406Z,-1.22
2019-01-03T23:08:40.368Z,-1.20
2019-01-03T23:11:14.206Z,-1.21
2019-01-03T23:13:49.192Z,-1.21
2019-01-03T23:16:22.642Z,-1.17
2019-01-03T23:18:56.145Z,-1.17
2019-01-03T23:21:30.290Z,-1.13
2019-01-03T23:24:03.502Z,-1.11
2019-01-03T23:26:37.265Z,-1.10
2019-01-03T23:29:10.822Z,-1.09
2019-01-03T23:31:44.504Z,-1.07
2019-01-03T23:34:18.312Z,-1.07
2019-01-03T23:36:52.226Z,-1.06
2019-01-03T23:39:25.507Z,-1.03
2019-01-03T23:41:59.109Z,-1.03
2019-01-03T23:44:32.455Z,-1.01
2019-01-03T23:47:05.889Z,-0.98
2019-01-03T23:49:39.663Z,-0.97
2019-01-03T23:52:13.199Z,-0.99
2019-01-03T23:54:46.557Z,-0.96
2019-01-03T23:57:20.095Z,-0.93
2019-01-03T23:59:53.474Z,-0.94
